Terminal Aerodrome Forecast
Issued by NWS Memphis, TN

Home | Current Version | Previous Version | Text Only | Print | Product List | Glossary On
Versions: 1 2 3 4 5 6 7 8 9 10 11 12
000
FTUS44 KMEG 130522
TAFMKL
TAF
KMKL 130522Z 1306/1406 02011KT P6SM SKC
      TEMPO 1306/1307 FEW025
     FM131200 02010KT P6SM FEW100
     FM140000 05005KT P6SM SCT070 BKN150=

USA.gov is the U.S. government's official web portal to all federal, state and local government web resources and services.